createdAt,value
2017-01-20T00:00:21.004Z,1034.86
2017-01-20T00:01:29.981Z,1034.82
2017-01-20T00:02:38.973Z,1034.83
2017-01-20T00:03:47.994Z,1034.82
2017-01-20T00:04:56.983Z,1034.78
2017-01-20T00:06:05.964Z,1034.76
2017-01-20T00:07:14.950Z,1034.73
2017-01-20T00:08:23.933Z,1034.68
2017-01-20T00:09:32.921Z,1034.64
2017-01-20T00:10:41.927Z,1034.64
2017-01-20T00:11:50.895Z,1034.67
2017-01-20T00:12:59.889Z,1034.69
2017-01-20T00:14:08.876Z,1034.73
2017-01-20T00:15:17.869Z,1034.68
2017-01-20T00:16:26.863Z,1034.66
2017-01-20T00:17:35.853Z,1034.62
2017-01-20T00:18:44.830Z,1034.59
2017-01-20T00:19:53.801Z,1034.59
2017-01-20T00:21:02.821Z,1034.58
2017-01-20T00:22:11.810Z,1034.62
2017-01-20T00:23:20.802Z,1034.6
2017-01-20T00:24:29.807Z,1034.6
2017-01-20T00:25:38.803Z,1034.6
2017-01-20T00:26:47.785Z,1034.65
2017-01-20T00:27:56.767Z,1034.55
2017-01-20T00:29:05.752Z,1034.54
2017-01-20T00:30:14.734Z,1034.52
2017-01-20T00:31:23.731Z,1034.49
2017-01-20T00:32:32.707Z,1034.55
2017-01-20T00:33:41.692Z,1034.57
2017-01-20T00:34:50.708Z,1034.51
2017-01-20T00:35:59.691Z,1034.54
2017-01-20T00:37:08.669Z,1034.51
2017-01-20T00:38:17.657Z,1034.44
2017-01-20T00:39:26.638Z,1034.43
2017-01-20T00:40:35.616Z,1034.4
2017-01-20T00:41:44.612Z,1034.45
2017-01-20T00:42:53.609Z,1034.4
2017-01-20T00:44:02.599Z,1034.4
2017-01-20T00:45:11.609Z,1034.38
2017-01-20T00:46:20.589Z,1034.33
2017-01-20T00:47:29.602Z,1034.35
2017-01-20T00:48:38.603Z,1034.37
2017-01-20T00:49:47.587Z,1034.36
2017-01-20T00:50:56.582Z,1034.33
2017-01-20T00:52:05.565Z,1034.31
2017-01-20T00:53:14.560Z,1034.35
2017-01-20T00:54:23.552Z,1034.34
2017-01-20T00:55:32.548Z,1034.36
2017-01-20T00:56:41.532Z,1034.35
2017-01-20T00:57:50.513Z,1034.35
2017-01-20T00:58:59.502Z,1034.33
2017-01-20T01:00:08.494Z,1034.36
2017-01-20T01:01:17.470Z,1034.35
2017-01-20T01:02:26.466Z,1034.37
2017-01-20T01:03:35.457Z,1034.39
2017-01-20T01:04:44.446Z,1034.39
2017-01-20T01:05:53.436Z,1034.4
2017-01-20T01:07:02.417Z,1034.36
2017-01-20T01:08:11.399Z,1034.38
2017-01-20T01:09:20.390Z,1034.37
2017-01-20T01:10:29.386Z,1034.36
2017-01-20T01:11:38.379Z,1034.35
2017-01-20T01:12:47.373Z,1034.4
2017-01-20T01:13:56.365Z,1034.41
2017-01-20T01:15:05.342Z,1034.39
2017-01-20T01:16:14.337Z,1034.41
2017-01-20T01:17:23.335Z,1034.39
2017-01-20T01:18:32.315Z,1034.36
2017-01-20T01:19:41.288Z,1034.31
2017-01-20T01:20:50.302Z,1034.28
2017-01-20T01:21:59.282Z,1034.24
2017-01-20T01:23:08.287Z,1034.23
2017-01-20T01:24:17.476Z,1034.26
2017-01-20T01:25:26.464Z,1034.23
2017-01-20T01:26:35.464Z,1034.27
2017-01-20T01:27:44.441Z,1034.26
2017-01-20T01:28:53.424Z,1034.25
2017-01-20T01:30:02.410Z,1034.24
2017-01-20T01:31:11.391Z,1034.25
2017-01-20T01:32:20.378Z,1034.26
2017-01-20T01:33:29.358Z,1034.24
2017-01-20T01:34:38.346Z,1034.26
2017-01-20T01:35:47.333Z,1034.21
2017-01-20T01:36:56.320Z,1034.21
2017-01-20T01:38:05.304Z,1034.24
2017-01-20T01:39:14.295Z,1034.23
2017-01-20T01:40:23.289Z,1034.22
2017-01-20T01:41:32.282Z,1034.21
2017-01-20T01:42:41.278Z,1034.17
2017-01-20T01:43:50.260Z,1034.21
2017-01-20T01:44:59.252Z,1034.22
2017-01-20T01:46:08.250Z,1034.2
2017-01-20T01:47:17.234Z,1034.22
2017-01-20T01:48:26.222Z,1034.18
2017-01-20T01:49:35.205Z,1034.19
2017-01-20T01:50:44.195Z,1034.2
2017-01-20T01:51:53.168Z,1034.2
2017-01-20T01:53:02.167Z,1034.16
2017-01-20T01:54:11.169Z,1034.16
2017-01-20T01:55:20.157Z,1034.16
2017-01-20T01:56:29.138Z,1034.1
2017-01-20T01:57:38.141Z,1034.15
2017-01-20T01:58:47.128Z,1034.1
2017-01-20T01:59:56.105Z,1034.14
2017-01-20T02:01:05.093Z,1034.16
2017-01-20T02:02:14.087Z,1034.1
2017-01-20T02:03:23.076Z,1034.11
2017-01-20T02:04:32.054Z,1034.1
2017-01-20T02:05:41.045Z,1034.11
2017-01-20T02:06:50.020Z,1034.07
2017-01-20T02:07:59.002Z,1034.06
2017-01-20T02:09:07.992Z,1034.07
2017-01-20T02:10:16.984Z,1034.06
2017-01-20T02:11:25.972Z,1034.07
2017-01-20T02:12:34.954Z,1034.09
2017-01-20T02:13:43.935Z,1034.12
2017-01-20T02:14:52.916Z,1034.09
2017-01-20T02:16:01.909Z,1034.11
2017-01-20T02:17:10.897Z,1034.11
2017-01-20T02:18:19.871Z,1034.11
2017-01-20T02:19:28.866Z,1034.11
2017-01-20T02:20:37.843Z,1034.1
2017-01-20T02:21:46.836Z,1034.02
2017-01-20T02:22:55.824Z,1034
2017-01-20T02:24:04.804Z,1034
2017-01-20T02:25:13.780Z,1034.03
2017-01-20T02:26:22.768Z,1033.96
2017-01-20T02:27:31.744Z,1033.98
2017-01-20T02:28:40.731Z,1034.02
2017-01-20T02:29:49.718Z,1033.98
2017-01-20T02:30:58.714Z,1033.99
2017-01-20T02:32:07.740Z,1034.01
2017-01-20T02:33:16.721Z,1034
2017-01-20T02:34:25.700Z,1033.96
2017-01-20T02:35:34.740Z,1033.94
2017-01-20T02:36:43.730Z,1033.99
2017-01-20T02:37:52.709Z,1033.97
2017-01-20T02:39:01.694Z,1034.01
2017-01-20T02:40:10.673Z,1033.98
2017-01-20T02:41:19.704Z,1034
2017-01-20T02:42:28.707Z,1033.95
2017-01-20T02:43:37.690Z,1033.95
2017-01-20T02:44:46.676Z,1033.92
2017-01-20T02:45:55.666Z,1033.94
2017-01-20T02:47:04.656Z,1033.9
2017-01-20T02:48:13.640Z,1033.89
2017-01-20T02:49:22.624Z,1033.95
2017-01-20T02:50:31.615Z,1033.98
2017-01-20T02:51:40.617Z,1033.99
2017-01-20T02:52:49.602Z,1033.95
2017-01-20T02:53:58.576Z,1033.89
2017-01-20T02:55:07.568Z,1033.94
2017-01-20T02:56:16.552Z,1033.91
2017-01-20T02:57:25.531Z,1033.93
2017-01-20T02:58:34.518Z,1033.96
2017-01-20T02:59:43.498Z,1033.89
2017-01-20T03:00:52.481Z,1033.86
2017-01-20T03:02:01.458Z,1033.9
2017-01-20T03:03:10.440Z,1033.91
2017-01-20T03:04:19.424Z,1033.86
2017-01-20T03:05:28.450Z,1033.85
2017-01-20T03:06:37.430Z,1033.86
2017-01-20T03:07:46.396Z,1033.85
2017-01-20T03:08:55.392Z,1033.89
2017-01-20T03:10:04.409Z,1033.9
2017-01-20T03:11:13.382Z,1033.89
2017-01-20T03:12:22.376Z,1033.88
2017-01-20T03:13:31.364Z,1033.88
2017-01-20T03:14:40.351Z,1033.87
2017-01-20T03:15:49.337Z,1033.91
2017-01-20T03:16:58.336Z,1033.89
2017-01-20T03:18:07.310Z,1033.92
2017-01-20T03:19:16.305Z,1033.92
2017-01-20T03:20:25.274Z,1033.92
2017-01-20T03:21:34.261Z,1033.93
2017-01-20T03:22:43.247Z,1033.92
2017-01-20T03:23:52.245Z,1033.9
2017-01-20T03:25:01.228Z,1033.87
2017-01-20T03:26:10.214Z,1033.84
2017-01-20T03:27:19.194Z,1033.84
2017-01-20T03:28:28.188Z,1033.8
2017-01-20T03:29:37.159Z,1033.85
2017-01-20T03:30:46.562Z,1033.82
2017-01-20T03:31:55.560Z,1033.8
2017-01-20T03:33:04.560Z,1033.79
2017-01-20T03:34:13.538Z,1033.79
2017-01-20T03:35:22.535Z,1033.79
2017-01-20T03:36:31.524Z,1033.78
2017-01-20T03:37:40.502Z,1033.77
2017-01-20T03:38:49.510Z,1033.8
2017-01-20T03:39:58.489Z,1033.77
2017-01-20T03:41:07.475Z,1033.76
2017-01-20T03:42:16.471Z,1033.78
2017-01-20T03:43:25.444Z,1033.78
2017-01-20T03:44:34.419Z,1033.72
2017-01-20T03:45:43.437Z,1033.74
2017-01-20T03:46:52.436Z,1033.72
2017-01-20T03:48:01.447Z,1033.7
2017-01-20T03:49:10.433Z,1033.73
2017-01-20T03:50:19.408Z,1033.71
2017-01-20T03:51:28.387Z,1033.73
2017-01-20T03:52:37.392Z,1033.68
2017-01-20T03:53:46.385Z,1033.66
2017-01-20T03:54:55.368Z,1033.66
2017-01-20T03:56:04.357Z,1033.65
2017-01-20T03:57:13.333Z,1033.64
2017-01-20T03:58:22.368Z,1033.65
2017-01-20T03:59:31.359Z,1033.67
2017-01-20T04:00:40.341Z,1033.66
2017-01-20T04:01:49.343Z,1033.66
2017-01-20T04:02:58.333Z,1033.67
2017-01-20T04:04:07.364Z,1033.63
2017-01-20T04:05:16.345Z,1033.68
2017-01-20T04:06:25.345Z,1033.67
2017-01-20T04:07:34.337Z,1033.66
2017-01-20T04:08:43.309Z,1033.65
2017-01-20T04:09:52.301Z,1033.67
2017-01-20T04:11:01.285Z,1033.65
2017-01-20T04:12:10.275Z,1033.65
2017-01-20T04:13:19.253Z,1033.61
2017-01-20T04:14:28.267Z,1033.59
2017-01-20T04:15:37.238Z,1033.61
2017-01-20T04:16:46.222Z,1033.58
2017-01-20T04:17:55.202Z,1033.58
2017-01-20T04:19:04.195Z,1033.61
2017-01-20T04:20:13.173Z,1033.55
2017-01-20T04:21:22.163Z,1033.54
2017-01-20T04:22:31.135Z,1033.55
2017-01-20T04:23:40.156Z,1033.56
2017-01-20T04:24:49.163Z,1033.54
2017-01-20T04:25:58.152Z,1033.52
2017-01-20T04:27:07.136Z,1033.56
2017-01-20T04:28:16.122Z,1033.56
2017-01-20T04:29:25.100Z,1033.54
2017-01-20T04:30:34.076Z,1033.52
2017-01-20T04:31:43.067Z,1033.47
2017-01-20T04:32:52.047Z,1033.47
2017-01-20T04:34:01.031Z,1033.48
2017-01-20T04:35:10.010Z,1033.44
2017-01-20T04:36:18.988Z,1033.44
2017-01-20T04:37:27.971Z,1033.4
2017-01-20T04:38:36.951Z,1033.42
2017-01-20T04:39:45.942Z,1033.44
2017-01-20T04:40:54.918Z,1033.46
2017-01-20T04:42:03.915Z,1033.44
2017-01-20T04:43:12.888Z,1033.43
2017-01-20T04:44:21.870Z,1033.37
2017-01-20T04:45:30.866Z,1033.43
2017-01-20T04:46:39.848Z,1033.44
2017-01-20T04:47:48.839Z,1033.44
2017-01-20T04:48:57.825Z,1033.41
2017-01-20T04:50:06.835Z,1033.39
2017-01-20T04:51:15.843Z,1033.4
2017-01-20T04:52:24.823Z,1033.4
2017-01-20T04:53:33.879Z,1033.39
2017-01-20T04:54:42.867Z,1033.4
2017-01-20T04:55:51.860Z,1033.41
2017-01-20T04:57:00.838Z,1033.41
2017-01-20T04:58:09.814Z,1033.46
2017-01-20T04:59:18.800Z,1033.46
2017-01-20T05:00:27.779Z,1033.46
2017-01-20T05:01:36.761Z,1033.46
2017-01-20T05:02:45.756Z,1033.49
2017-01-20T05:03:54.743Z,1033.49
2017-01-20T05:05:03.732Z,1033.52
2017-01-20T05:06:12.720Z,1033.53
2017-01-20T05:07:21.718Z,1033.5
2017-01-20T05:08:30.689Z,1033.51
2017-01-20T05:09:39.702Z,1033.51
2017-01-20T05:10:48.669Z,1033.51
2017-01-20T05:11:57.659Z,1033.48
2017-01-20T05:13:06.639Z,1033.5
2017-01-20T05:14:15.632Z,1033.48
2017-01-20T05:15:24.618Z,1033.51
2017-01-20T05:16:33.609Z,1033.53
2017-01-20T05:17:42.611Z,1033.55
2017-01-20T05:18:51.583Z,1033.53
2017-01-20T05:20:00.565Z,1033.59
2017-01-20T05:21:09.558Z,1033.62
2017-01-20T05:22:18.564Z,1033.61
2017-01-20T05:23:27.542Z,1033.57
2017-01-20T05:24:36.523Z,1033.57
2017-01-20T05:25:45.493Z,1033.54
2017-01-20T05:26:54.499Z,1033.57
2017-01-20T05:28:03.625Z,1033.52
2017-01-20T05:29:13.327Z,1033.53
2017-01-20T05:30:22.336Z,1033.56
2017-01-20T05:31:31.324Z,1033.55
2017-01-20T05:32:40.323Z,1033.53
2017-01-20T05:33:49.303Z,1033.54
2017-01-20T05:34:58.297Z,1033.49
2017-01-20T05:36:07.286Z,1033.49
2017-01-20T05:37:16.266Z,1033.49
2017-01-20T05:38:25.253Z,1033.52
2017-01-20T05:39:34.240Z,1033.47
2017-01-20T05:40:43.234Z,1033.48
2017-01-20T05:41:52.224Z,1033.52
2017-01-20T05:43:01.209Z,1033.48
2017-01-20T05:44:10.184Z,1033.53
2017-01-20T05:45:19.174Z,1033.55
2017-01-20T05:46:28.151Z,1033.51
2017-01-20T05:47:37.146Z,1033.54
2017-01-20T05:48:46.133Z,1033.52
2017-01-20T05:49:55.116Z,1033.48
2017-01-20T05:51:04.112Z,1033.46
2017-01-20T05:52:13.094Z,1033.43
2017-01-20T05:53:22.075Z,1033.43
2017-01-20T05:54:31.062Z,1033.49
2017-01-20T05:55:40.051Z,1033.49
2017-01-20T05:56:49.036Z,1033.46
2017-01-20T05:57:58.010Z,1033.46
2017-01-20T05:59:07.002Z,1033.43
2017-01-20T06:00:15.984Z,1033.4
2017-01-20T06:01:24.987Z,1033.41
2017-01-20T06:02:33.964Z,1033.38
2017-01-20T06:03:42.951Z,1033.4
2017-01-20T06:04:52.002Z,1033.43
2017-01-20T06:06:00.979Z,1033.42
2017-01-20T06:07:09.968Z,1033.42
2017-01-20T06:08:18.955Z,1033.44
2017-01-20T06:09:27.983Z,1033.4
2017-01-20T06:10:36.953Z,1033.36
2017-01-20T06:11:45.928Z,1033.37
2017-01-20T06:12:54.915Z,1033.4
2017-01-20T06:14:03.902Z,1033.39
2017-01-20T06:15:12.881Z,1033.38
2017-01-20T06:16:21.873Z,1033.44
2017-01-20T06:17:30.871Z,1033.43
2017-01-20T06:18:39.856Z,1033.41
2017-01-20T06:19:48.845Z,1033.41
2017-01-20T06:20:57.822Z,1033.35
2017-01-20T06:22:06.821Z,1033.36
2017-01-20T06:23:15.798Z,1033.34
2017-01-20T06:24:24.803Z,1033.3
2017-01-20T06:25:33.783Z,1033.33
2017-01-20T06:26:42.772Z,1033.34
2017-01-20T06:27:51.758Z,1033.32
2017-01-20T06:29:00.746Z,1033.32
2017-01-20T06:30:09.738Z,1033.31
2017-01-20T06:31:18.709Z,1033.31
2017-01-20T06:32:27.690Z,1033.3
2017-01-20T06:33:36.667Z,1033.24
2017-01-20T06:34:45.662Z,1033.26
2017-01-20T06:35:54.641Z,1033.26
2017-01-20T06:37:03.628Z,1033.3
2017-01-20T06:38:12.640Z,1033.3
2017-01-20T06:39:21.617Z,1033.32
2017-01-20T06:40:30.613Z,1033.3
2017-01-20T06:41:39.603Z,1033.25
2017-01-20T06:42:48.584Z,1033.22
2017-01-20T06:43:57.571Z,1033.23
2017-01-20T06:45:06.550Z,1033.26
2017-01-20T06:46:15.532Z,1033.2
2017-01-20T06:47:24.521Z,1033.24
2017-01-20T06:48:33.521Z,1033.24
2017-01-20T06:49:42.498Z,1033.25
2017-01-20T06:50:51.489Z,1033.31
2017-01-20T06:52:00.473Z,1033.31
2017-01-20T06:53:09.459Z,1033.29
2017-01-20T06:54:18.445Z,1033.31
2017-01-20T06:55:27.430Z,1033.27
2017-01-20T06:56:36.416Z,1033.25
2017-01-20T06:57:45.395Z,1033.24
2017-01-20T06:58:54.395Z,1033.23
2017-01-20T07:00:03.378Z,1033.27
2017-01-20T07:01:12.397Z,1033.27
2017-01-20T07:02:21.398Z,1033.28
2017-01-20T07:03:30.385Z,1033.27
2017-01-20T07:04:39.381Z,1033.27
2017-01-20T07:05:48.371Z,1033.26
2017-01-20T07:06:57.365Z,1033.29
2017-01-20T07:08:06.348Z,1033.27
2017-01-20T07:09:15.342Z,1033.31
2017-01-20T07:10:24.312Z,1033.31
2017-01-20T07:11:33.301Z,1033.35
2017-01-20T07:12:42.279Z,1033.33
2017-01-20T07:13:51.258Z,1033.37
2017-01-20T07:15:00.253Z,1033.39
2017-01-20T07:16:09.247Z,1033.38
2017-01-20T07:17:18.235Z,1033.39
2017-01-20T07:18:27.626Z,1033.38
2017-01-20T07:19:36.606Z,1033.36
2017-01-20T07:20:45.593Z,1033.4
2017-01-20T07:21:54.579Z,1033.44
2017-01-20T07:23:03.555Z,1033.47
2017-01-20T07:24:12.549Z,1033.54
2017-01-20T07:25:21.535Z,1033.52
2017-01-20T07:26:30.531Z,1033.52
2017-01-20T07:27:39.519Z,1033.55
2017-01-20T07:28:48.516Z,1033.56
2017-01-20T07:29:57.491Z,1033.56
2017-01-20T07:31:09.331Z,1033.55
2017-01-20T07:32:18.330Z,1033.57
2017-01-20T07:33:27.300Z,1033.57
2017-01-20T07:34:36.317Z,1033.55
2017-01-20T07:35:45.304Z,1033.57
2017-01-20T07:36:54.294Z,1033.58
2017-01-20T07:38:03.295Z,1033.64
2017-01-20T07:39:12.279Z,1033.61
2017-01-20T07:40:21.265Z,1033.6
2017-01-20T07:41:30.240Z,1033.58
2017-01-20T07:42:39.234Z,1033.59
2017-01-20T07:43:48.210Z,1033.56
2017-01-20T07:44:57.206Z,1033.56
2017-01-20T07:46:06.202Z,1033.6
2017-01-20T07:47:15.185Z,1033.63
2017-01-20T07:48:24.172Z,1033.63
2017-01-20T07:49:33.160Z,1033.63
2017-01-20T07:50:42.141Z,1033.65
2017-01-20T07:51:51.133Z,1033.65
2017-01-20T07:53:00.116Z,1033.64
2017-01-20T07:54:09.091Z,1033.67
2017-01-20T07:55:18.078Z,1033.67
2017-01-20T07:56:27.074Z,1033.69
2017-01-20T07:57:36.056Z,1033.71
2017-01-20T07:58:45.045Z,1033.7
2017-01-20T07:59:54.028Z,1033.67
2017-01-20T08:01:03.012Z,1033.66
2017-01-20T08:02:11.995Z,1033.68
2017-01-20T08:03:20.989Z,1033.67
2017-01-20T08:04:29.993Z,1033.66
2017-01-20T08:05:38.978Z,1033.68
2017-01-20T08:06:47.978Z,1033.6
2017-01-20T08:07:56.956Z,1033.64
2017-01-20T08:09:05.944Z,1033.63
2017-01-20T08:10:14.929Z,1033.6
2017-01-20T08:11:23.920Z,1033.62
2017-01-20T08:12:32.908Z,1033.61
2017-01-20T08:13:42.338Z,1033.61
2017-01-20T08:14:51.326Z,1033.6
2017-01-20T08:16:00.302Z,1033.62
2017-01-20T08:17:09.301Z,1033.61
2017-01-20T08:18:18.286Z,1033.62
2017-01-20T08:19:27.274Z,1033.65
2017-01-20T08:20:36.297Z,1033.72
2017-01-20T08:21:45.273Z,1033.75
2017-01-20T08:22:54.255Z,1033.77
2017-01-20T08:24:03.280Z,1033.77
2017-01-20T08:25:12.269Z,1033.72
2017-01-20T08:26:21.271Z,1033.66
2017-01-20T08:27:30.266Z,1033.68
2017-01-20T08:28:39.247Z,1033.71
2017-01-20T08:29:48.242Z,1033.71
2017-01-20T08:30:57.223Z,1033.73
2017-01-20T08:32:06.211Z,1033.74
2017-01-20T08:33:15.197Z,1033.71
2017-01-20T08:34:24.221Z,1033.73
2017-01-20T08:35:33.194Z,1033.77
2017-01-20T08:36:42.178Z,1033.77
2017-01-20T08:37:51.161Z,1033.81
2017-01-20T08:39:00.142Z,1033.81
2017-01-20T08:40:09.129Z,1033.8
2017-01-20T08:41:18.139Z,1033.75
2017-01-20T08:42:27.131Z,1033.69
2017-01-20T08:43:36.107Z,1033.7
2017-01-20T08:44:45.091Z,1033.69
2017-01-20T08:45:54.091Z,1033.72
2017-01-20T08:47:03.099Z,1033.75
2017-01-20T08:48:12.077Z,1033.77
2017-01-20T08:49:21.067Z,1033.76
2017-01-20T08:50:30.057Z,1033.73
2017-01-20T08:51:39.044Z,1033.68
2017-01-20T08:52:48.060Z,1033.7
2017-01-20T08:53:57.042Z,1033.71
2017-01-20T08:55:06.018Z,1033.72
2017-01-20T08:56:15.007Z,1033.71
2017-01-20T08:57:23.982Z,1033.71
2017-01-20T08:58:33.004Z,1033.68
2017-01-20T08:59:41.992Z,1033.65
2017-01-20T09:00:50.962Z,1033.67
2017-01-20T09:01:59.948Z,1033.67
2017-01-20T09:03:08.946Z,1033.69
2017-01-20T09:04:17.929Z,1033.74
2017-01-20T09:05:26.924Z,1033.74
2017-01-20T09:06:35.910Z,1033.74
2017-01-20T09:07:44.883Z,1033.74
2017-01-20T09:08:53.963Z,1033.73
2017-01-20T09:10:02.962Z,1033.76
2017-01-20T09:11:11.940Z,1033.79
2017-01-20T09:12:20.927Z,1033.8
2017-01-20T09:13:29.906Z,1033.78
2017-01-20T09:14:38.901Z,1033.76
2017-01-20T09:15:47.894Z,1033.76
2017-01-20T09:16:56.869Z,1033.78
2017-01-20T09:18:05.862Z,1033.78
2017-01-20T09:19:14.849Z,1033.75
2017-01-20T09:20:23.834Z,1033.77
2017-01-20T09:21:32.823Z,1033.8
2017-01-20T09:22:41.812Z,1033.78
2017-01-20T09:23:50.804Z,1033.79
2017-01-20T09:24:59.786Z,1033.75
2017-01-20T09:26:08.771Z,1033.73
2017-01-20T09:27:17.753Z,1033.74
2017-01-20T09:28:26.753Z,1033.76
2017-01-20T09:29:35.753Z,1033.7
2017-01-20T09:30:44.727Z,1033.73
2017-01-20T09:31:53.714Z,1033.75
2017-01-20T09:33:02.703Z,1033.75
2017-01-20T09:34:11.690Z,1033.75
2017-01-20T09:35:20.675Z,1033.73
2017-01-20T09:36:29.659Z,1033.7
2017-01-20T09:37:38.636Z,1033.69
2017-01-20T09:38:47.604Z,1033.65
2017-01-20T09:39:56.597Z,1033.66
2017-01-20T09:41:05.580Z,1033.62
2017-01-20T09:42:14.570Z,1033.64
2017-01-20T09:43:23.558Z,1033.65
2017-01-20T09:44:32.544Z,1033.67
2017-01-20T09:45:41.516Z,1033.66
2017-01-20T09:46:50.498Z,1033.65
2017-01-20T09:47:59.489Z,1033.7
2017-01-20T09:49:08.505Z,1033.71
2017-01-20T09:50:17.502Z,1033.75
2017-01-20T09:51:26.471Z,1033.69
2017-01-20T09:52:35.499Z,1033.7
2017-01-20T09:53:44.515Z,1033.69
2017-01-20T09:54:53.508Z,1033.68
2017-01-20T09:56:02.487Z,1033.69
2017-01-20T09:57:11.492Z,1033.69
2017-01-20T09:58:20.470Z,1033.65
2017-01-20T09:59:29.455Z,1033.67
2017-01-20T10:00:38.450Z,1033.65
2017-01-20T10:01:47.445Z,1033.68
2017-01-20T10:02:56.426Z,1033.65
2017-01-20T10:04:05.413Z,1033.65
2017-01-20T10:05:14.385Z,1033.63
2017-01-20T10:06:23.371Z,1033.62
2017-01-20T10:07:32.347Z,1033.65
2017-01-20T10:08:41.343Z,1033.64
2017-01-20T10:09:50.335Z,1033.65
2017-01-20T10:10:59.331Z,1033.66
2017-01-20T10:12:08.321Z,1033.71
2017-01-20T10:13:17.307Z,1033.65
2017-01-20T10:14:26.294Z,1033.66
2017-01-20T10:15:35.287Z,1033.65
2017-01-20T10:16:44.268Z,1033.67
2017-01-20T10:17:53.249Z,1033.65
2017-01-20T10:19:02.229Z,1033.64
2017-01-20T10:20:11.221Z,1033.62
2017-01-20T10:21:20.216Z,1033.66
2017-01-20T10:22:29.204Z,1033.66
2017-01-20T10:23:38.397Z,1033.69
2017-01-20T10:24:47.395Z,1033.66
2017-01-20T10:25:56.788Z,1033.63
2017-01-20T10:27:05.763Z,1033.64
2017-01-20T10:28:14.750Z,1033.59
2017-01-20T10:29:23.748Z,1033.63
2017-01-20T10:30:32.724Z,1033.6
2017-01-20T10:31:41.698Z,1033.59
2017-01-20T10:32:50.687Z,1033.57
2017-01-20T10:33:59.672Z,1033.56
2017-01-20T10:35:08.673Z,1033.58
2017-01-20T10:36:17.650Z,1033.61
2017-01-20T10:37:26.637Z,1033.56
2017-01-20T10:38:35.620Z,1033.57
2017-01-20T10:39:44.610Z,1033.56
2017-01-20T10:40:53.591Z,1033.53
2017-01-20T10:42:02.590Z,1033.52
2017-01-20T10:43:11.571Z,1033.5
2017-01-20T10:44:20.556Z,1033.5
2017-01-20T10:45:29.548Z,1033.5
2017-01-20T10:46:38.555Z,1033.47
2017-01-20T10:47:47.547Z,1033.47
2017-01-20T10:48:56.525Z,1033.45
2017-01-20T10:50:05.525Z,1033.44
2017-01-20T10:51:14.501Z,1033.46
2017-01-20T10:52:23.518Z,1033.43
2017-01-20T10:53:32.501Z,1033.43
2017-01-20T10:54:41.483Z,1033.39
2017-01-20T10:55:50.467Z,1033.38
2017-01-20T10:56:59.456Z,1033.4
2017-01-20T10:58:08.455Z,1033.41
2017-01-20T10:59:17.445Z,1033.4
2017-01-20T11:00:26.432Z,1033.43
2017-01-20T11:01:35.419Z,1033.48
2017-01-20T11:02:44.404Z,1033.43
2017-01-20T11:03:53.402Z,1033.44
2017-01-20T11:05:02.757Z,1033.45
2017-01-20T11:06:11.744Z,1033.49
2017-01-20T11:07:20.734Z,1033.45
2017-01-20T11:08:29.722Z,1033.43
2017-01-20T11:09:38.717Z,1033.44
2017-01-20T11:10:47.715Z,1033.44
2017-01-20T11:11:56.713Z,1033.38
2017-01-20T11:13:05.880Z,1033.34
2017-01-20T11:14:14.871Z,1033.36
2017-01-20T11:15:23.854Z,1033.33
2017-01-20T11:16:32.847Z,1033.3
2017-01-20T11:17:41.832Z,1033.32
2017-01-20T11:18:50.825Z,1033.29
2017-01-20T11:19:59.818Z,1033.3
2017-01-20T11:21:09.222Z,1033.34
2017-01-20T11:22:18.202Z,1033.31
2017-01-20T11:23:27.197Z,1033.28
2017-01-20T11:24:36.201Z,1033.28
2017-01-20T11:25:45.196Z,1033.23
2017-01-20T11:26:54.184Z,1033.24
2017-01-20T11:28:03.159Z,1033.24
2017-01-20T11:29:12.179Z,1033.21
2017-01-20T11:30:21.161Z,1033.2
2017-01-20T11:31:30.134Z,1033.16
2017-01-20T11:32:39.126Z,1033.16
2017-01-20T11:33:48.109Z,1033.14
2017-01-20T11:34:57.097Z,1033.12
2017-01-20T11:36:06.084Z,1033.15
2017-01-20T11:37:15.080Z,1033.17
2017-01-20T11:38:24.055Z,1033.17
2017-01-20T11:39:33.050Z,1033.17
2017-01-20T11:40:42.035Z,1033.19
2017-01-20T11:41:51.033Z,1033.12
2017-01-20T11:43:00.017Z,1033.13
2017-01-20T11:44:08.996Z,1033.13
2017-01-20T11:45:17.991Z,1033.13
2017-01-20T11:46:26.980Z,1033.15
2017-01-20T11:47:35.978Z,1033.12
2017-01-20T11:48:44.962Z,1033.12
2017-01-20T11:49:53.959Z,1033.06
2017-01-20T11:51:02.950Z,1033.07
2017-01-20T11:52:11.940Z,1033.05
2017-01-20T11:53:20.925Z,1033.04
2017-01-20T11:54:29.918Z,1033
2017-01-20T11:55:38.905Z,1033.01
2017-01-20T11:56:47.879Z,1032.95
2017-01-20T11:57:56.884Z,1033
2017-01-20T11:59:05.897Z,1032.96
2017-01-20T12:00:14.882Z,1032.98
2017-01-20T12:01:23.870Z,1032.99
2017-01-20T12:02:32.865Z,1032.93
2017-01-20T12:03:41.939Z,1032.93
2017-01-20T12:04:52.575Z,1032.91
2017-01-20T12:06:01.572Z,1032.89
2017-01-20T12:07:10.565Z,1032.9
2017-01-20T12:08:19.561Z,1032.87
2017-01-20T12:09:28.543Z,1032.89
2017-01-20T12:10:37.521Z,1032.85
2017-01-20T12:11:47.008Z,1032.85
2017-01-20T12:12:55.999Z,1032.85
2017-01-20T12:14:04.989Z,1032.83
2017-01-20T12:15:13.977Z,1032.79
2017-01-20T12:16:22.979Z,1032.8
2017-01-20T12:17:31.957Z,1032.83
2017-01-20T12:18:40.997Z,1032.85
2017-01-20T12:19:50.009Z,1032.82
2017-01-20T12:20:59.003Z,1032.82
2017-01-20T12:22:07.993Z,1032.78
2017-01-20T12:23:16.981Z,1032.77
2017-01-20T12:24:25.955Z,1032.74
2017-01-20T12:25:34.938Z,1032.73
2017-01-20T12:26:43.939Z,1032.72
2017-01-20T12:27:52.943Z,1032.73
2017-01-20T12:29:01.937Z,1032.71
2017-01-20T12:30:10.923Z,1032.73
2017-01-20T12:31:19.931Z,1032.68
2017-01-20T12:32:28.928Z,1032.65
2017-01-20T12:33:37.925Z,1032.63
2017-01-20T12:34:46.921Z,1032.59
2017-01-20T12:35:55.900Z,1032.63
2017-01-20T12:37:04.888Z,1032.67
2017-01-20T12:38:13.886Z,1032.65
2017-01-20T12:39:22.885Z,1032.64
2017-01-20T12:40:31.887Z,1032.62
2017-01-20T12:41:40.885Z,1032.61
2017-01-20T12:42:49.881Z,1032.6
2017-01-20T12:43:58.873Z,1032.59
2017-01-20T12:45:07.865Z,1032.59
2017-01-20T12:46:16.895Z,1032.54
2017-01-20T12:47:25.894Z,1032.56
2017-01-20T12:48:34.880Z,1032.55
2017-01-20T12:49:43.871Z,1032.5
2017-01-20T12:50:52.873Z,1032.54
2017-01-20T12:52:01.856Z,1032.49
2017-01-20T12:53:10.850Z,1032.53
2017-01-20T12:54:19.836Z,1032.53
2017-01-20T12:55:28.832Z,1032.54
2017-01-20T12:56:37.819Z,1032.53
2017-01-20T12:57:46.807Z,1032.43
2017-01-20T12:58:55.797Z,1032.53
2017-01-20T13:00:04.785Z,1032.49
2017-01-20T13:01:13.806Z,1032.43
2017-01-20T13:02:22.815Z,1032.47
2017-01-20T13:03:31.801Z,1032.45
2017-01-20T13:04:40.789Z,1032.47
2017-01-20T13:05:49.773Z,1032.45
2017-01-20T13:06:58.759Z,1032.43
2017-01-20T13:08:07.749Z,1032.44
2017-01-20T13:09:16.742Z,1032.44
2017-01-20T13:10:25.730Z,1032.44
2017-01-20T13:11:34.714Z,1032.41
2017-01-20T13:12:43.711Z,1032.41
2017-01-20T13:13:52.692Z,1032.41
2017-01-20T13:15:01.691Z,1032.4
2017-01-20T13:16:10.699Z,1032.38
2017-01-20T13:17:19.693Z,1032.41
2017-01-20T13:18:28.668Z,1032.42
2017-01-20T13:19:37.660Z,1032.46
2017-01-20T13:20:46.652Z,1032.44
2017-01-20T13:21:55.632Z,1032.44
2017-01-20T13:23:04.611Z,1032.41
2017-01-20T13:24:13.605Z,1032.4
2017-01-20T13:25:22.596Z,1032.38
2017-01-20T13:26:31.729Z,1032.4
2017-01-20T13:27:40.722Z,1032.37
2017-01-20T13:28:49.715Z,1032.38
2017-01-20T13:29:58.713Z,1032.38
2017-01-20T13:31:07.714Z,1032.38
2017-01-20T13:32:16.992Z,1032.45
2017-01-20T13:33:25.978Z,1032.48
2017-01-20T13:34:34.986Z,1032.43
2017-01-20T13:35:43.979Z,1032.46
2017-01-20T13:36:52.954Z,1032.44
2017-01-20T13:38:01.945Z,1032.41
2017-01-20T13:39:10.956Z,1032.44
2017-01-20T13:40:19.949Z,1032.42
2017-01-20T13:41:28.955Z,1032.43
2017-01-20T13:42:38.363Z,1032.45
2017-01-20T13:43:47.337Z,1032.44
2017-01-20T13:44:56.333Z,1032.43
2017-01-20T13:46:05.308Z,1032.42
2017-01-20T13:47:14.294Z,1032.41
2017-01-20T13:48:23.283Z,1032.4
2017-01-20T13:49:32.268Z,1032.42
2017-01-20T13:50:41.241Z,1032.43
2017-01-20T13:51:50.222Z,1032.4
2017-01-20T13:52:59.203Z,1032.42
2017-01-20T13:54:08.191Z,1032.41
2017-01-20T13:55:17.187Z,1032.41
2017-01-20T13:56:26.177Z,1032.43
2017-01-20T13:57:35.151Z,1032.4